sensor_id;sensor_type;location;lat;lon;timestamp;P1;durP1;ratioP1;P2;durP2;ratioP2
21503;SDS011;10913;51.992;9.228;2022-09-09T02:29:18;1.92;;;0.98;;
21503;SDS011;10913;51.992;9.228;2022-09-09T02:31:48;2.15;;;1.00;;
21503;SDS011;10913;51.992;9.228;2022-09-09T02:34:16;2.28;;;1.15;;
21503;SDS011;10913;51.992;9.228;2022-09-09T02:36:45;1.33;;;0.80;;
21503;SDS011;10913;51.992;9.228;2022-09-09T02:39:11;1.15;;;1.02;;
21503;SDS011;10913;51.992;9.228;2022-09-09T02:41:39;1.33;;;0.90;;
21503;SDS011;10913;51.992;9.228;2022-09-09T02:44:13;2.97;;;1.00;;
21503;SDS011;10913;51.992;9.228;2022-09-09T02:52:18;1.38;;;1.00;;
21503;SDS011;10913;51.992;9.228;2022-09-09T02:54:50;1.67;;;1.10;;
21503;SDS011;10913;51.992;9.228;2022-09-09T02:57:31;1.95;;;1.00;;
21503;SDS011;10913;51.992;9.228;2022-09-09T02:59:59;0.80;;;0.80;;
21503;SDS011;10913;51.992;9.228;2022-09-09T03:02:26;2.45;;;1.15;;
21503;SDS011;10913;51.992;9.228;2022-09-09T03:04:51;2.47;;;1.10;;
21503;SDS011;10913;51.992;9.228;2022-09-09T03:07:18;1.45;;;1.00;;
21503;SDS011;10913;51.992;9.228;2022-09-09T03:09:44;1.10;;;1.00;;
21503;SDS011;10913;51.992;9.228;2022-09-09T03:12:09;1.33;;;0.90;;
21503;SDS011;10913;51.992;9.228;2022-09-09T03:14:36;1.73;;;0.80;;
21503;SDS011;10913;51.992;9.228;2022-09-09T03:17:03;2.15;;;1.00;;
21503;SDS011;10913;51.992;9.228;2022-09-09T03:19:29;2.63;;;1.15;;
21503;SDS011;10913;51.992;9.228;2022-09-09T03:21:54;1.60;;;0.95;;
21503;SDS011;10913;51.992;9.228;2022-09-09T03:24:20;1.55;;;0.95;;
21503;SDS011;10913;51.992;9.228;2022-09-09T03:26:46;4.35;;;1.17;;
21503;SDS011;10913;51.992;9.228;2022-09-09T03:29:12;1.75;;;1.00;;
21503;SDS011;10913;51.992;9.228;2022-09-09T03:31:38;2.47;;;1.10;;
21503;SDS011;10913;51.992;9.228;2022-09-09T03:34:04;1.33;;;1.00;;
21503;SDS011;10913;51.992;9.228;2022-09-09T03:36:30;4.03;;;1.52;;
21503;SDS011;10913;51.992;9.228;2022-09-09T03:38:56;1.60;;;1.02;;
21503;SDS011;10913;51.992;9.228;2022-09-09T03:41:23;2.38;;;1.10;;
21503;SDS011;10913;51.992;9.228;2022-09-09T03:43:49;3.45;;;1.10;;
21503;SDS011;10913;51.992;9.228;2022-09-09T03:46:16;3.78;;;1.38;;
21503;SDS011;10913;51.992;9.228;2022-09-09T03:48:41;2.10;;;1.08;;
21503;SDS011;10913;51.992;9.228;2022-09-09T03:51:07;2.05;;;1.00;;
21503;SDS011;10913;51.992;9.228;2022-09-09T03:53:32;2.05;;;0.98;;
21503;SDS011;10913;51.992;9.228;2022-09-09T03:55:58;2.15;;;1.10;;
21503;SDS011;10913;51.992;9.228;2022-09-09T03:58:25;2.35;;;1.05;;
21503;SDS011;10913;51.992;9.228;2022-09-09T04:00:55;2.33;;;1.20;;
21503;SDS011;10913;51.992;9.228;2022-09-09T04:03:22;2.85;;;1.40;;
21503;SDS011;10913;51.992;9.228;2022-09-09T04:05:50;2.03;;;1.20;;
21503;SDS011;10913;51.992;9.228;2022-09-09T04:08:16;3.78;;;1.30;;
21503;SDS011;10913;51.992;9.228;2022-09-09T04:10:44;2.13;;;1.30;;
21503;SDS011;10913;51.992;9.228;2022-09-09T04:13:11;3.10;;;1.40;;
21503;SDS011;10913;51.992;9.228;2022-09-09T04:15:39;2.17;;;1.20;;
21503;SDS011;10913;51.992;9.228;2022-09-09T04:18:04;1.10;;;1.00;;
21503;SDS011;10913;51.992;9.228;2022-09-09T04:20:31;1.73;;;1.30;;
21503;SDS011;10913;51.992;9.228;2022-09-09T04:22:56;3.53;;;1.20;;
21503;SDS011;10913;51.992;9.228;2022-09-09T04:25:21;2.72;;;1.30;;
21503;SDS011;10913;51.992;9.228;2022-09-09T04:27:46;1.35;;;1.20;;
21503;SDS011;10913;51.992;9.228;2022-09-09T04:30:12;1.38;;;1.10;;
21503;SDS011;10913;51.992;9.228;2022-09-09T04:32:37;1.65;;;1.20;;
21503;SDS011;10913;51.992;9.228;2022-09-09T04:35:03;1.80;;;1.00;;
21503;SDS011;10913;51.992;9.228;2022-09-09T04:37:28;2.10;;;1.08;;
21503;SDS011;10913;51.992;9.228;2022-09-09T04:39:54;3.60;;;1.15;;
21503;SDS011;10913;51.992;9.228;2022-09-09T04:42:19;1.98;;;1.25;;
21503;SDS011;10913;51.992;9.228;2022-09-09T04:44:44;3.35;;;1.23;;
21503;SDS011;10913;51.992;9.228;2022-09-09T04:47:10;4.68;;;1.45;;
21503;SDS011;10913;51.992;9.228;2022-09-09T04:49:36;2.53;;;1.38;;
21503;SDS011;10913;51.992;9.228;2022-09-09T04:52:02;2.42;;;1.40;;
21503;SDS011;10913;51.992;9.228;2022-09-09T04:54:28;1.90;;;1.15;;
21503;SDS011;10913;51.992;9.228;2022-09-09T04:56:53;2.10;;;1.42;;
21503;SDS011;10913;51.992;9.228;2022-09-09T04:59:19;3.63;;;1.42;;
21503;SDS011;10913;51.992;9.228;2022-09-09T05:01:45;3.10;;;1.40;;
21503;SDS011;10913;51.992;9.228;2022-09-09T05:04:10;1.75;;;1.27;;
21503;SDS011;10913;51.992;9.228;2022-09-09T05:06:41;2.22;;;1.25;;
21503;SDS011;10913;51.992;9.228;2022-09-09T05:09:07;3.90;;;1.50;;
21503;SDS011;10913;51.992;9.228;2022-09-09T05:11:33;1.50;;;1.15;;
21503;SDS011;10913;51.992;9.228;2022-09-09T05:14:01;1.98;;;1.05;;
21503;SDS011;10913;51.992;9.228;2022-09-09T05:16:27;1.65;;;1.00;;
21503;SDS011;10913;51.992;9.228;2022-09-09T05:18:53;1.35;;;1.25;;
21503;SDS011;10913;51.992;9.228;2022-09-09T05:21:21;2.40;;;1.25;;
21503;SDS011;10913;51.992;9.228;2022-09-09T05:23:48;2.25;;;1.30;;
21503;SDS011;10913;51.992;9.228;2022-09-09T05:26:15;1.63;;;1.35;;
21503;SDS011;10913;51.992;9.228;2022-09-09T05:28:42;2.50;;;1.20;;
21503;SDS011;10913;51.992;9.228;2022-09-09T05:31:08;1.95;;;1.30;;
21503;SDS011;10913;51.992;9.228;2022-09-09T05:33:37;2.30;;;1.20;;
21503;SDS011;10913;51.992;9.228;2022-09-09T05:36:06;1.77;;;1.20;;
21503;SDS011;10913;51.992;9.228;2022-09-09T05:38:34;2.78;;;1.30;;
21503;SDS011;10913;51.992;9.228;2022-09-09T05:41:01;3.53;;;1.48;;
21503;SDS011;10913;51.992;9.228;2022-09-09T05:43:27;2.17;;;1.35;;
21503;SDS011;10913;51.992;9.228;2022-09-09T05:46:01;2.40;;;1.38;;
21503;SDS011;10913;51.992;9.228;2022-09-09T05:48:30;2.47;;;1.20;;
21503;SDS011;10913;51.992;9.228;2022-09-09T05:50:57;2.92;;;1.23;;
21503;SDS011;10913;51.992;9.228;2022-09-09T05:53:23;1.77;;;1.20;;
21503;SDS011;10913;51.992;9.228;2022-09-09T05:55:48;1.35;;;1.23;;
21503;SDS011;10913;51.992;9.228;2022-09-09T05:58:14;1.88;;;1.27;;
21503;SDS011;10913;51.992;9.228;2022-09-09T06:00:41;2.22;;;1.20;;
21503;SDS011;10913;51.992;9.228;2022-09-09T06:03:10;1.63;;;1.20;;
21503;SDS011;10913;51.992;9.228;2022-09-09T06:05:36;2.20;;;1.30;;
21503;SDS011;10913;51.992;9.228;2022-09-09T06:08:02;2.53;;;1.55;;
21503;SDS011;10913;51.992;9.228;2022-09-09T06:10:28;3.33;;;1.50;;
21503;SDS011;10913;51.992;9.228;2022-09-09T06:12:53;2.90;;;1.50;;
21503;SDS011;10913;51.992;9.228;2022-09-09T06:15:18;3.80;;;1.60;;
21503;SDS011;10913;51.992;9.228;2022-09-09T06:17:44;1.63;;;1.30;;
21503;SDS011;10913;51.992;9.228;2022-09-09T06:20:10;2.80;;;1.30;;
21503;SDS011;10913;51.992;9.228;2022-09-09T06:22:38;2.72;;;1.30;;
21503;SDS011;10913;51.992;9.228;2022-09-09T06:25:05;2.25;;;1.23;;
21503;SDS011;10913;51.992;9.228;2022-09-09T06:27:30;2.05;;;1.33;;
21503;SDS011;10913;51.992;9.228;2022-09-09T06:29:56;2.10;;;1.23;;
21503;SDS011;10913;51.992;9.228;2022-09-09T06:32:21;1.63;;;1.50;;
21503;SDS011;10913;51.992;9.228;2022-09-09T06:34:46;2.17;;;1.40;;
21503;SDS011;10913;51.992;9.228;2022-09-09T06:37:14;2.05;;;1.40;;
21503;SDS011;10913;51.992;9.228;2022-09-09T06:39:39;1.73;;;1.38;;
21503;SDS011;10913;51.992;9.228;2022-09-09T06:42:05;2.55;;;1.55;;
21503;SDS011;10913;51.992;9.228;2022-09-09T06:44:33;5.07;;;1.90;;
21503;SDS011;10913;51.992;9.228;2022-09-09T06:46:58;3.15;;;1.80;;
21503;SDS011;10913;51.992;9.228;2022-09-09T06:49:24;3.05;;;1.75;;
21503;SDS011;10913;51.992;9.228;2022-09-09T06:51:49;3.67;;;1.83;;
21503;SDS011;10913;51.992;9.228;2022-09-09T06:54:15;2.53;;;1.50;;
21503;SDS011;10913;51.992;9.228;2022-09-09T06:56:41;4.13;;;1.60;;
21503;SDS011;10913;51.992;9.228;2022-09-09T06:59:08;2.33;;;1.33;;
21503;SDS011;10913;51.992;9.228;2022-09-09T07:01:35;4.35;;;1.60;;
21503;SDS011;10913;51.992;9.228;2022-09-09T07:04:02;3.20;;;1.42;;
21503;SDS011;10913;51.992;9.228;2022-09-09T07:06:33;3.22;;;1.40;;
21503;SDS011;10913;51.992;9.228;2022-09-09T07:09:00;3.38;;;1.65;;
21503;SDS011;10913;51.992;9.228;2022-09-09T07:11:29;3.08;;;1.48;;
21503;SDS011;10913;51.992;9.228;2022-09-09T07:13:56;5.00;;;1.65;;
21503;SDS011;10913;51.992;9.228;2022-09-09T07:16:24;4.53;;;1.50;;
21503;SDS011;10913;51.992;9.228;2022-09-09T07:18:50;4.40;;;1.55;;
21503;SDS011;10913;51.992;9.228;2022-09-09T07:21:16;3.45;;;1.50;;
21503;SDS011;10913;51.992;9.228;2022-09-09T07:23:42;3.15;;;1.52;;
21503;SDS011;10913;51.992;9.228;2022-09-09T07:26:12;3.70;;;1.70;;
21503;SDS011;10913;51.992;9.228;2022-09-09T07:28:39;3.60;;;1.50;;
21503;SDS011;10913;51.992;9.228;2022-09-09T07:31:06;3.97;;;1.58;;
21503;SDS011;10913;51.992;9.228;2022-09-09T07:33:33;2.17;;;1.40;;
21503;SDS011;10913;51.992;9.228;2022-09-09T07:38:40;2.90;;;1.70;;
21503;SDS011;10913;51.992;9.228;2022-09-09T07:41:09;4.35;;;1.60;;
21503;SDS011;10913;51.992;9.228;2022-09-09T07:43:40;3.63;;;1.30;;
21503;SDS011;10913;51.992;9.228;2022-09-09T07:46:07;2.42;;;1.35;;
21503;SDS011;10913;51.992;9.228;2022-09-09T07:48:33;4.25;;;1.65;;
21503;SDS011;10913;51.992;9.228;2022-09-09T07:51:10;3.10;;;1.50;;
21503;SDS011;10913;51.992;9.228;2022-09-09T07:53:41;2.80;;;1.30;;
21503;SDS011;10913;51.992;9.228;2022-09-09T07:56:08;3.78;;;1.77;;
21503;SDS011;10913;51.992;9.228;2022-09-09T07:58:39;2.95;;;1.50;;
21503;SDS011;10913;51.992;9.228;2022-09-09T08:01:06;4.07;;;1.48;;
21503;SDS011;10913;51.992;9.228;2022-09-09T08:03:33;2.97;;;1.60;;
21503;SDS011;10913;51.992;9.228;2022-09-09T08:06:02;5.63;;;1.70;;
21503;SDS011;10913;51.992;9.228;2022-09-09T08:08:29;4.85;;;1.70;;
21503;SDS011;10913;51.992;9.228;2022-09-09T08:11:01;3.90;;;1.40;;
21503;SDS011;10913;51.992;9.228;2022-09-09T08:13:37;5.20;;;1.83;;
21503;SDS011;10913;51.992;9.228;2022-09-09T08:16:11;3.17;;;1.70;;
21503;SDS011;10913;51.992;9.228;2022-09-09T08:18:38;4.30;;;1.58;;
21503;SDS011;10913;51.992;9.228;2022-09-09T08:21:08;4.28;;;1.50;;
21503;SDS011;10913;51.992;9.228;2022-09-09T08:23:38;2.08;;;1.30;;
21503;SDS011;10913;51.992;9.228;2022-09-09T08:26:07;2.83;;;1.58;;
21503;SDS011;10913;51.992;9.228;2022-09-09T08:33:40;2.58;;;1.40;;
21503;SDS011;10913;51.992;9.228;2022-09-09T08:36:08;3.38;;;1.58;;
21503;SDS011;10913;51.992;9.228;2022-09-09T08:38:35;3.90;;;1.75;;
21503;SDS011;10913;51.992;9.228;2022-09-09T08:43:43;4.60;;;1.35;;
21503;SDS011;10913;51.992;9.228;2022-09-09T08:46:18;3.72;;;1.60;;
21503;SDS011;10913;51.992;9.228;2022-09-09T08:51:41;2.72;;;1.10;;
21503;SDS011;10913;51.992;9.228;2022-09-09T08:54:07;4.43;;;1.38;;
21503;SDS011;10913;51.992;9.228;2022-09-09T08:56:35;4.05;;;1.40;;
21503;SDS011;10913;51.992;9.228;2022-09-09T08:59:01;3.42;;;1.33;;
21503;SDS011;10913;51.992;9.228;2022-09-09T09:12:50;3.97;;;1.23;;
21503;SDS011;10913;51.992;9.228;2022-09-09T09:15:21;4.15;;;1.30;;
21503;SDS011;10913;51.992;9.228;2022-09-09T09:17:49;4.55;;;1.48;;
21503;SDS011;10913;51.992;9.228;2022-09-09T09:20:16;2.55;;;1.40;;
21503;SDS011;10913;51.992;9.228;2022-09-09T09:22:47;3.78;;;1.33;;
21503;SDS011;10913;51.992;9.228;2022-09-09T09:25:22;4.32;;;1.23;;
21503;SDS011;10913;51.992;9.228;2022-09-09T09:27:55;2.95;;;1.50;;
21503;SDS011;10913;51.992;9.228;2022-09-09T09:30:34;4.45;;;1.30;;
21503;SDS011;10913;51.992;9.228;2022-09-09T09:33:08;3.03;;;1.25;;
21503;SDS011;10913;51.992;9.228;2022-09-09T09:35:39;2.80;;;1.05;;
21503;SDS011;10913;51.992;9.228;2022-09-09T09:41:00;2.53;;;1.02;;
21503;SDS011;10913;51.992;9.228;2022-09-09T09:45:51;3.88;;;1.20;;
21503;SDS011;10913;51.992;9.228;2022-09-09T09:48:16;2.40;;;1.10;;
21503;SDS011;10913;51.992;9.228;2022-09-09T09:53:23;1.60;;;1.10;;
21503;SDS011;10913;51.992;9.228;2022-09-09T09:58:49;3.42;;;1.23;;
21503;SDS011;10913;51.992;9.228;2022-09-09T10:01:23;3.88;;;1.00;;
21503;SDS011;10913;51.992;9.228;2022-09-09T10:03:53;3.63;;;1.08;;
21503;SDS011;10913;51.992;9.228;2022-09-09T10:08:57;2.53;;;1.10;;
21503;SDS011;10913;51.992;9.228;2022-09-09T10:11:26;4.25;;;1.30;;
21503;SDS011;10913;51.992;9.228;2022-09-09T10:14:00;2.05;;;1.00;;
21503;SDS011;10913;51.992;9.228;2022-09-09T10:19:08;3.33;;;1.10;;
21503;SDS011;10913;51.992;9.228;2022-09-09T10:21:47;3.17;;;1.15;;
21503;SDS011;10913;51.992;9.228;2022-09-09T10:27:00;2.65;;;1.25;;
21503;SDS011;10913;51.992;9.228;2022-09-09T10:32:37;4.43;;;1.50;;
21503;SDS011;10913;51.992;9.228;2022-09-09T10:35:10;3.63;;;1.23;;
21503;SDS011;10913;51.992;9.228;2022-09-09T10:56:40;1.88;;;1.02;;
21503;SDS011;10913;51.992;9.228;2022-09-09T10:59:16;3.30;;;1.00;;
21503;SDS011;10913;51.992;9.228;2022-09-09T11:01:49;1.48;;;0.90;;
21503;SDS011;10913;51.992;9.228;2022-09-09T11:04:27;3.03;;;1.10;;
21503;SDS011;10913;51.992;9.228;2022-09-09T11:07:08;3.65;;;1.10;;
21503;SDS011;10913;51.992;9.228;2022-09-09T11:09:46;4.38;;;1.33;;
21503;SDS011;10913;51.992;9.228;2022-09-09T11:12:20;4.15;;;1.20;;
21503;SDS011;10913;51.992;9.228;2022-09-09T11:15:06;2.75;;;1.30;;
21503;SDS011;10913;51.992;9.228;2022-09-09T11:17:43;3.75;;;1.30;;
21503;SDS011;10913;51.992;9.228;2022-09-09T11:20:12;3.13;;;1.50;;
21503;SDS011;10913;51.992;9.228;2022-09-09T11:23:25;3.00;;;1.30;;
21503;SDS011;10913;51.992;9.228;2022-09-09T11:25:40;2.33;;;1.35;;
21503;SDS011;10913;51.992;9.228;2022-09-09T11:34:01;2.80;;;1.40;;
21503;SDS011;10913;51.992;9.228;2022-09-09T11:36:56;3.25;;;1.38;;
21503;SDS011;10913;51.992;9.228;2022-09-09T11:42:18;5.47;;;1.48;;
21503;SDS011;10913;51.992;9.228;2022-09-09T11:44:45;3.35;;;1.27;;
21503;SDS011;10913;51.992;9.228;2022-09-09T11:47:24;3.38;;;1.02;;
21503;SDS011;10913;51.992;9.228;2022-09-09T11:49:54;5.85;;;1.40;;
21503;SDS011;10913;51.992;9.228;2022-09-09T11:54:50;3.45;;;1.40;;
21503;SDS011;10913;51.992;9.228;2022-09-09T12:00:27;4.15;;;1.27;;
21503;SDS011;10913;51.992;9.228;2022-09-09T12:02:59;5.22;;;1.30;;
21503;SDS011;10913;51.992;9.228;2022-09-09T12:05:34;2.50;;;0.98;;
21503;SDS011;10913;51.992;9.228;2022-09-09T12:08:03;2.58;;;1.05;;
21503;SDS011;10913;51.992;9.228;2022-09-09T12:10:33;4.28;;;1.20;;
21503;SDS011;10913;51.992;9.228;2022-09-09T12:15:46;3.35;;;1.30;;
21503;SDS011;10913;51.992;9.228;2022-09-09T12:18:24;3.30;;;1.15;;
21503;SDS011;10913;51.992;9.228;2022-09-09T12:23:36;3.25;;;0.90;;
21503;SDS011;10913;51.992;9.228;2022-09-09T12:33:46;2.42;;;1.00;;
21503;SDS011;10913;51.992;9.228;2022-09-09T12:36:16;3.10;;;1.23;;
21503;SDS011;10913;51.992;9.228;2022-09-09T12:38:44;3.45;;;1.17;;
21503;SDS011;10913;51.992;9.228;2022-09-09T12:43:47;3.28;;;1.33;;
21503;SDS011;10913;51.992;9.228;2022-09-09T12:46:30;3.63;;;1.15;;
21503;SDS011;10913;51.992;9.228;2022-09-09T12:49:01;1.90;;;0.93;;
21503;SDS011;10913;51.992;9.228;2022-09-09T12:51:28;1.88;;;0.90;;
21503;SDS011;10913;51.992;9.228;2022-09-09T12:53:55;3.83;;;1.20;;
21503;SDS011;10913;51.992;9.228;2022-09-09T12:56:22;2.88;;;1.15;;
21503;SDS011;10913;51.992;9.228;2022-09-09T12:58:53;3.85;;;1.02;;
21503;SDS011;10913;51.992;9.228;2022-09-09T13:01:25;3.55;;;1.17;;
21503;SDS011;10913;51.992;9.228;2022-09-09T13:03:53;3.63;;;1.13;;
21503;SDS011;10913;51.992;9.228;2022-09-09T13:06:20;2.58;;;0.80;;
21503;SDS011;10913;51.992;9.228;2022-09-09T13:08:48;2.08;;;1.00;;
21503;SDS011;10913;51.992;9.228;2022-09-09T13:11:17;4.45;;;1.02;;
21503;SDS011;10913;51.992;9.228;2022-09-09T13:13:54;4.15;;;1.13;;
21503;SDS011;10913;51.992;9.228;2022-09-09T13:18:57;3.58;;;1.40;;
21503;SDS011;10913;51.992;9.228;2022-09-09T13:21:31;3.55;;;1.10;;
21503;SDS011;10913;51.992;9.228;2022-09-09T13:23:57;3.90;;;0.90;;
21503;SDS011;10913;51.992;9.228;2022-09-09T13:26:28;2.28;;;1.02;;
21503;SDS011;10913;51.992;9.228;2022-09-09T13:28:55;4.05;;;1.00;;
21503;SDS011;10913;51.992;9.228;2022-09-09T13:31:33;2.35;;;1.10;;
21503;SDS011;10913;51.992;9.228;2022-09-09T13:34:10;2.70;;;1.00;;
21503;SDS011;10913;51.992;9.228;2022-09-09T13:36:39;2.17;;;0.88;;
21503;SDS011;10913;51.992;9.228;2022-09-09T13:39:13;3.10;;;1.17;;
21503;SDS011;10913;51.992;9.228;2022-09-09T13:41:43;3.97;;;1.13;;
21503;SDS011;10913;51.992;9.228;2022-09-09T13:49:47;1.85;;;0.90;;
21503;SDS011;10913;51.992;9.228;2022-09-09T13:52:13;3.25;;;1.10;;
21503;SDS011;10913;51.992;9.228;2022-09-09T13:54:41;2.17;;;0.90;;
21503;SDS011;10913;51.992;9.228;2022-09-09T13:57:49;2.28;;;0.93;;
21503;SDS011;10913;51.992;9.228;2022-09-09T14:00:00;2.50;;;0.88;;
21503;SDS011;10913;51.992;9.228;2022-09-09T14:02:26;2.88;;;0.80;;
21503;SDS011;10913;51.992;9.228;2022-09-09T14:04:51;2.40;;;1.10;;
21503;SDS011;10913;51.992;9.228;2022-09-09T14:07:20;4.13;;;1.08;;
21503;SDS011;10913;51.992;9.228;2022-09-09T14:09:46;1.85;;;0.90;;
21503;SDS011;10913;51.992;9.228;2022-09-09T14:12:15;4.82;;;1.10;;
21503;SDS011;10913;51.992;9.228;2022-09-09T14:14:41;3.17;;;1.00;;
21503;SDS011;10913;51.992;9.228;2022-09-09T14:17:07;2.65;;;1.02;;
21503;SDS011;10913;51.992;9.228;2022-09-09T14:19:33;3.20;;;0.98;;
21503;SDS011;10913;51.992;9.228;2022-09-09T14:21:58;1.92;;;0.88;;
21503;SDS011;10913;51.992;9.228;2022-09-09T14:24:24;2.20;;;0.90;;
21503;SDS011;10913;51.992;9.228;2022-09-09T14:26:50;3.88;;;1.20;;
21503;SDS011;10913;51.992;9.228;2022-09-09T14:29:16;2.75;;;0.85;;
21503;SDS011;10913;51.992;9.228;2022-09-09T14:31:41;2.97;;;1.00;;
21503;SDS011;10913;51.992;9.228;2022-09-09T14:34:06;1.35;;;0.80;;
21503;SDS011;10913;51.992;9.228;2022-09-09T14:36:32;1.63;;;0.80;;
21503;SDS011;10913;51.992;9.228;2022-09-09T14:38:58;4.05;;;0.85;;
21503;SDS011;10913;51.992;9.228;2022-09-09T14:41:23;1.92;;;0.77;;
21503;SDS011;10913;51.992;9.228;2022-09-09T14:43:50;1.83;;;0.80;;
21503;SDS011;10913;51.992;9.228;2022-09-09T14:46:17;2.58;;;0.88;;
21503;SDS011;10913;51.992;9.228;2022-09-09T14:48:44;1.85;;;0.73;;
21503;SDS011;10913;51.992;9.228;2022-09-09T14:51:22;3.38;;;1.00;;
21503;SDS011;10913;51.992;9.228;2022-09-09T14:53:50;2.38;;;0.60;;
21503;SDS011;10913;51.992;9.228;2022-09-09T14:56:18;2.35;;;0.77;;
21503;SDS011;10913;51.992;9.228;2022-09-09T14:58:47;2.85;;;0.80;;
21503;SDS011;10913;51.992;9.228;2022-09-09T15:01:14;1.23;;;0.70;;
21503;SDS011;10913;51.992;9.228;2022-09-09T15:03:41;2.42;;;0.73;;
21503;SDS011;10913;51.992;9.228;2022-09-09T15:06:08;1.85;;;0.68;;
21503;SDS011;10913;51.992;9.228;2022-09-09T15:08:39;2.22;;;0.82;;
21503;SDS011;10913;51.992;9.228;2022-09-09T15:11:06;1.50;;;0.80;;
21503;SDS011;10913;51.992;9.228;2022-09-09T15:13:32;1.15;;;0.60;;
21503;SDS011;10913;51.992;9.228;2022-09-09T15:18:31;1.70;;;0.80;;
21503;SDS011;10913;51.992;9.228;2022-09-09T15:20:58;0.90;;;0.63;;
21503;SDS011;10913;51.992;9.228;2022-09-09T15:23:24;1.30;;;0.60;;
21503;SDS011;10913;51.992;9.228;2022-09-09T15:25:51;2.25;;;0.80;;
21503;SDS011;10913;51.992;9.228;2022-09-09T15:28:20;1.90;;;0.80;;
21503;SDS011;10913;51.992;9.228;2022-09-09T15:30:49;2.78;;;0.93;;
21503;SDS011;10913;51.992;9.228;2022-09-09T15:33:16;1.88;;;0.73;;
21503;SDS011;10913;51.992;9.228;2022-09-09T15:35:42;1.52;;;0.73;;
21503;SDS011;10913;51.992;9.228;2022-09-09T15:38:07;1.60;;;0.55;;
21503;SDS011;10913;51.992;9.228;2022-09-09T15:40:32;2.75;;;0.80;;
21503;SDS011;10913;51.992;9.228;2022-09-09T15:42:58;1.90;;;0.73;;
21503;SDS011;10913;51.992;9.228;2022-09-09T15:45:24;2.78;;;0.80;;
21503;SDS011;10913;51.992;9.228;2022-09-09T15:47:49;2.70;;;1.17;;
21503;SDS011;10913;51.992;9.228;2022-09-09T15:50:14;2.58;;;0.80;;
21503;SDS011;10913;51.992;9.228;2022-09-09T15:52:40;1.05;;;0.60;;
21503;SDS011;10913;51.992;9.228;2022-09-09T15:55:06;3.08;;;0.82;;
21503;SDS011;10913;51.992;9.228;2022-09-09T15:57:33;2.78;;;1.08;;
21503;SDS011;10913;51.992;9.228;2022-09-09T15:59:59;1.95;;;0.90;;
21503;SDS011;10913;51.992;9.228;2022-09-09T16:02:25;2.00;;;0.80;;
21503;SDS011;10913;51.992;9.228;2022-09-09T16:04:50;3.30;;;1.08;;
21503;SDS011;10913;51.992;9.228;2022-09-09T16:07:15;1.80;;;0.82;;
21503;SDS011;10913;51.992;9.228;2022-09-09T16:09:41;2.55;;;1.10;;
21503;SDS011;10913;51.992;9.228;2022-09-09T16:12:08;3.15;;;1.00;;
21503;SDS011;10913;51.992;9.228;2022-09-09T16:14:38;2.20;;;1.00;;
21503;SDS011;10913;51.992;9.228;2022-09-09T16:17:04;4.30;;;1.30;;
21503;SDS011;10913;51.992;9.228;2022-09-09T16:19:32;4.22;;;1.08;;
21503;SDS011;10913;51.992;9.228;2022-09-09T16:21:59;3.92;;;1.00;;
21503;SDS011;10913;51.992;9.228;2022-09-09T16:24:24;3.17;;;1.20;;
21503;SDS011;10913;51.992;9.228;2022-09-09T16:26:51;2.78;;;1.10;;
21503;SDS011;10913;51.992;9.228;2022-09-09T16:29:19;3.85;;;1.02;;
21503;SDS011;10913;51.992;9.228;2022-09-09T16:31:46;2.05;;;0.90;;
21503;SDS011;10913;51.992;9.228;2022-09-09T16:34:13;2.72;;;1.00;;
21503;SDS011;10913;51.992;9.228;2022-09-09T16:36:41;6.82;;;1.15;;
21503;SDS011;10913;51.992;9.228;2022-09-09T16:39:11;2.72;;;1.10;;
21503;SDS011;10913;51.992;9.228;2022-09-09T16:41:41;2.88;;;0.93;;
21503;SDS011;10913;51.992;9.228;2022-09-09T16:44:09;2.17;;;1.00;;
21503;SDS011;10913;51.992;9.228;2022-09-09T16:46:36;4.28;;;1.05;;
21503;SDS011;10913;51.992;9.228;2022-09-09T16:49:05;3.63;;;1.10;;
21503;SDS011;10913;51.992;9.228;2022-09-09T16:51:33;2.08;;;1.10;;
21503;SDS011;10913;51.992;9.228;2022-09-09T16:54:01;3.53;;;1.50;;
21503;SDS011;10913;51.992;9.228;2022-09-09T16:56:29;2.78;;;1.13;;
21503;SDS011;10913;51.992;9.228;2022-09-09T16:58:58;3.05;;;0.98;;
21503;SDS011;10913;51.992;9.228;2022-09-09T17:01:26;3.58;;;1.30;;
21503;SDS011;10913;51.992;9.228;2022-09-09T17:03:54;2.72;;;1.10;;
21503;SDS011;10913;51.992;9.228;2022-09-09T17:06:20;2.50;;;1.10;;
21503;SDS011;10913;51.992;9.228;2022-09-09T17:08:46;3.10;;;0.98;;
21503;SDS011;10913;51.992;9.228;2022-09-09T17:11:14;2.85;;;1.00;;
21503;SDS011;10913;51.992;9.228;2022-09-09T17:13:44;3.70;;;1.30;;
21503;SDS011;10913;51.992;9.228;2022-09-09T17:16:11;1.88;;;1.10;;
21503;SDS011;10913;51.992;9.228;2022-09-09T17:18:38;3.20;;;1.25;;
21503;SDS011;10913;51.992;9.228;2022-09-09T17:21:05;3.85;;;1.20;;
21503;SDS011;10913;51.992;9.228;2022-09-09T17:23:33;3.28;;;1.23;;
21503;SDS011;10913;51.992;9.228;2022-09-09T17:25:59;3.40;;;0.98;;
21503;SDS011;10913;51.992;9.228;2022-09-09T17:28:25;2.85;;;1.10;;
21503;SDS011;10913;51.992;9.228;2022-09-09T17:30:56;3.15;;;1.00;;
21503;SDS011;10913;51.992;9.228;2022-09-09T17:33:23;2.45;;;0.88;;
21503;SDS011;10913;51.992;9.228;2022-09-09T17:35:48;4.07;;;1.20;;
21503;SDS011;10913;51.992;9.228;2022-09-09T17:38:14;1.52;;;1.00;;
21503;SDS011;10913;51.992;9.228;2022-09-09T17:40:40;2.50;;;1.00;;
21503;SDS011;10913;51.992;9.228;2022-09-09T17:43:05;3.88;;;1.13;;
21503;SDS011;10913;51.992;9.228;2022-09-09T17:45:30;3.50;;;1.02;;
21503;SDS011;10913;51.992;9.228;2022-09-09T17:47:56;2.60;;;1.00;;
21503;SDS011;10913;51.992;9.228;2022-09-09T17:50:22;6.10;;;1.55;;
21503;SDS011;10913;51.992;9.228;2022-09-09T17:52:47;3.72;;;1.20;;
21503;SDS011;10913;51.992;9.228;2022-09-09T17:55:13;2.47;;;1.00;;
21503;SDS011;10913;51.992;9.228;2022-09-09T17:57:40;4.70;;;1.38;;
21503;SDS011;10913;51.992;9.228;2022-09-09T18:00:06;2.97;;;1.00;;
21503;SDS011;10913;51.992;9.228;2022-09-09T18:02:33;3.72;;;0.98;;
21503;SDS011;10913;51.992;9.228;2022-09-09T18:04:58;3.50;;;1.05;;
21503;SDS011;10913;51.992;9.228;2022-09-09T18:07:25;3.50;;;0.90;;
21503;SDS011;10913;51.992;9.228;2022-09-09T18:09:51;1.60;;;0.90;;
21503;SDS011;10913;51.992;9.228;2022-09-09T18:12:16;5.18;;;0.93;;
21503;SDS011;10913;51.992;9.228;2022-09-09T18:14:42;4.25;;;1.10;;
21503;SDS011;10913;51.992;9.228;2022-09-09T18:17:07;3.85;;;1.35;;
21503;SDS011;10913;51.992;9.228;2022-09-09T18:19:33;2.10;;;0.90;;
21503;SDS011;10913;51.992;9.228;2022-09-09T18:21:59;1.55;;;1.00;;
21503;SDS011;10913;51.992;9.228;2022-09-09T18:24:25;2.97;;;1.05;;
21503;SDS011;10913;51.992;9.228;2022-09-09T18:26:51;2.28;;;0.90;;
21503;SDS011;10913;51.992;9.228;2022-09-09T18:29:21;3.00;;;1.02;;
21503;SDS011;10913;51.992;9.228;2022-09-09T18:31:49;2.28;;;0.93;;
21503;SDS011;10913;51.992;9.228;2022-09-09T18:34:16;2.17;;;1.10;;
21503;SDS011;10913;51.992;9.228;2022-09-09T18:36:44;2.47;;;1.05;;
21503;SDS011;10913;51.992;9.228;2022-09-09T18:39:12;2.80;;;1.10;;
21503;SDS011;10913;51.992;9.228;2022-09-09T18:41:39;2.53;;;1.00;;
21503;SDS011;10913;51.992;9.228;2022-09-09T18:44:07;1.42;;;0.98;;
21503;SDS011;10913;51.992;9.228;2022-09-09T18:46:37;3.08;;;1.15;;
21503;SDS011;10913;51.992;9.228;2022-09-09T18:49:03;4.38;;;1.00;;
21503;SDS011;10913;51.992;9.228;2022-09-09T18:51:30;2.35;;;1.10;;
21503;SDS011;10913;51.992;9.228;2022-09-09T18:54:01;1.85;;;0.80;;
21503;SDS011;10913;51.992;9.228;2022-09-09T18:56:29;1.85;;;1.00;;
21503;SDS011;10913;51.992;9.228;2022-09-09T18:58:56;2.88;;;1.20;;
21503;SDS011;10913;51.992;9.228;2022-09-09T19:01:23;3.95;;;1.27;;
21503;SDS011;10913;51.992;9.228;2022-09-09T19:03:50;5.13;;;1.60;;
21503;SDS011;10913;51.992;9.228;2022-09-09T19:06:16;3.42;;;1.40;;
21503;SDS011;10913;51.992;9.228;2022-09-09T19:08:44;3.03;;;1.40;;
21503;SDS011;10913;51.992;9.228;2022-09-09T19:11:12;2.60;;;1.20;;
21503;SDS011;10913;51.992;9.228;2022-09-09T19:13:40;1.38;;;0.85;;